createdAt,value
2018-02-21T00:00:15.236Z,20.37
2018-02-21T00:01:22.133Z,20.36
2018-02-21T00:02:28.451Z,20.36
2018-02-21T00:03:35.437Z,20.36
2018-02-21T00:04:42.004Z,20.34
2018-02-21T00:05:48.558Z,20.33
2018-02-21T00:06:55.092Z,20.33
2018-02-21T00:08:01.720Z,20.34
2018-02-21T00:09:08.694Z,20.34
2018-02-21T00:10:15.584Z,20.34
2018-02-21T00:11:22.062Z,20.31
2018-02-21T00:12:28.716Z,20.31
2018-02-21T00:13:35.418Z,20.31
2018-02-21T00:14:42.028Z,20.31
2018-02-21T00:15:47.732Z,20.33
2018-02-21T00:16:54.300Z,20.33
2018-02-21T00:18:01.087Z,20.30
2018-02-21T00:19:07.774Z,20.33
2018-02-21T00:20:14.845Z,20.31
2018-02-21T00:21:21.516Z,20.31
2018-02-21T00:22:28.467Z,20.27
2018-02-21T00:23:34.428Z,20.31
2018-02-21T00:24:41.023Z,20.30
2018-02-21T00:25:47.705Z,20.30
2018-02-21T00:26:54.477Z,20.30
2018-02-21T00:28:01.476Z,20.30
2018-02-21T00:29:08.157Z,20.29
2018-02-21T00:30:14.486Z,20.29
2018-02-21T00:31:21.065Z,20.29
2018-02-21T00:32:27.630Z,20.29
2018-02-21T00:33:34.004Z,20.27
2018-02-21T00:34:40.434Z,20.27
2018-02-21T00:35:47.347Z,20.29
2018-02-21T00:36:53.849Z,20.26
2018-02-21T00:38:00.269Z,20.27
2018-02-21T00:39:05.978Z,20.27
2018-02-21T00:40:12.589Z,20.26
2018-02-21T00:41:19.135Z,20.27
2018-02-21T00:42:25.599Z,20.27
2018-02-21T00:43:32.112Z,20.24
2018-02-21T00:44:38.583Z,20.24
2018-02-21T00:45:45.103Z,20.24
2018-02-21T00:46:51.746Z,20.27
2018-02-21T00:47:58.576Z,20.24
2018-02-21T00:49:05.318Z,20.24
2018-02-21T00:50:12.111Z,20.23
2018-02-21T00:51:18.785Z,20.24
2018-02-21T00:52:25.251Z,20.26
2018-02-21T00:53:31.085Z,20.23
2018-02-21T00:54:37.814Z,20.24
2018-02-21T00:55:44.675Z,20.24
2018-02-21T00:56:51.380Z,20.23
2018-02-21T00:57:58.327Z,20.24
2018-02-21T00:59:05.094Z,20.23
2018-02-21T01:00:11.844Z,20.22
2018-02-21T01:01:18.359Z,20.23
2018-02-21T01:02:24.785Z,20.23
2018-02-21T01:03:31.310Z,20.23
2018-02-21T01:04:38.018Z,20.22
2018-02-21T01:05:44.500Z,20.22
2018-02-21T01:06:51.645Z,20.24
2018-02-21T01:07:58.243Z,20.23
2018-02-21T01:09:05.021Z,20.22
2018-02-21T01:10:11.845Z,20.20
2018-02-21T01:11:18.769Z,20.20
2018-02-21T01:12:25.337Z,20.23
2018-02-21T01:13:31.777Z,20.22
2018-02-21T01:14:39.463Z,20.19
2018-02-21T01:15:45.261Z,20.22
2018-02-21T01:16:51.912Z,20.19
2018-02-21T01:17:59.037Z,20.20
2018-02-21T01:19:05.871Z,20.23
2018-02-21T01:20:12.929Z,20.22
2018-02-21T01:21:19.455Z,20.20
2018-02-21T01:22:26.184Z,20.22
2018-02-21T01:23:32.891Z,20.19
2018-02-21T01:24:39.876Z,20.19
2018-02-21T01:25:46.649Z,20.19
2018-02-21T01:26:53.363Z,20.20
2018-02-21T01:28:00.226Z,20.20
2018-02-21T01:29:07.006Z,20.17
2018-02-21T01:30:13.278Z,20.19
2018-02-21T01:31:19.768Z,20.20
2018-02-21T01:32:26.665Z,20.20
2018-02-21T01:33:33.222Z,20.20
2018-02-21T01:34:39.851Z,20.17
2018-02-21T01:35:46.433Z,20.22
2018-02-21T01:36:53.066Z,20.20
2018-02-21T01:37:58.458Z,20.17
2018-02-21T01:39:04.958Z,20.17
2018-02-21T01:40:11.257Z,20.20
2018-02-21T01:41:18.291Z,20.19
2018-02-21T01:42:24.078Z,20.20
2018-02-21T01:43:30.853Z,20.20
2018-02-21T01:44:37.486Z,20.17
2018-02-21T01:45:43.128Z,20.20
2018-02-21T01:46:50.050Z,20.16
2018-02-21T01:47:56.851Z,20.20
2018-02-21T01:49:03.177Z,20.20
2018-02-21T01:50:10.156Z,20.19
2018-02-21T01:51:16.703Z,20.19
2018-02-21T01:52:23.103Z,20.19
2018-02-21T01:53:29.213Z,20.17
2018-02-21T01:54:35.894Z,20.17
2018-02-21T01:55:42.417Z,20.19
2018-02-21T01:56:48.939Z,20.17
2018-02-21T01:57:55.294Z,20.17
2018-02-21T01:59:01.926Z,20.19
2018-02-21T02:00:09.074Z,20.20
2018-02-21T02:01:15.886Z,20.17
2018-02-21T02:02:22.285Z,20.17
2018-02-21T02:03:28.761Z,20.20
2018-02-21T02:04:35.282Z,20.17
2018-02-21T02:05:41.654Z,20.20
2018-02-21T02:06:48.063Z,20.19
2018-02-21T02:07:54.268Z,20.17
2018-02-21T02:09:00.623Z,20.20
2018-02-21T02:10:06.413Z,20.17
2018-02-21T02:11:13.132Z,20.17
2018-02-21T02:12:19.755Z,20.20
2018-02-21T02:13:25.329Z,20.16
2018-02-21T02:14:30.929Z,20.16
2018-02-21T02:15:37.053Z,20.20
2018-02-21T02:16:43.673Z,20.17
2018-02-21T02:17:50.053Z,20.17
2018-02-21T02:18:55.630Z,20.19
2018-02-21T02:20:01.227Z,20.16
2018-02-21T02:21:07.387Z,20.16
2018-02-21T02:22:13.884Z,20.17
2018-02-21T02:23:20.409Z,20.15
2018-02-21T02:24:26.991Z,20.15
2018-02-21T02:25:33.747Z,20.16
2018-02-21T02:26:40.328Z,20.16
2018-02-21T02:27:46.215Z,20.16
2018-02-21T02:28:52.904Z,20.17
2018-02-21T02:30:00.609Z,20.16
2018-02-21T02:31:08.077Z,20.16
2018-02-21T02:32:15.369Z,20.16
2018-02-21T02:33:22.185Z,20.13
2018-02-21T02:34:28.709Z,20.15
2018-02-21T02:35:35.392Z,20.15
2018-02-21T02:36:41.902Z,20.13
2018-02-21T02:37:48.783Z,20.16
2018-02-21T02:38:55.440Z,20.15
2018-02-21T02:40:02.112Z,20.15
2018-02-21T02:41:08.973Z,20.15
2018-02-21T02:42:16.224Z,20.15
2018-02-21T02:43:22.754Z,20.15
2018-02-21T02:44:29.396Z,20.15
2018-02-21T02:45:36.354Z,20.15
2018-02-21T02:46:42.882Z,20.11
2018-02-21T02:47:49.463Z,20.13
2018-02-21T02:48:56.154Z,20.13
2018-02-21T02:50:02.825Z,20.12
2018-02-21T02:51:09.679Z,20.12
2018-02-21T02:52:15.648Z,20.12
2018-02-21T02:53:22.201Z,20.13
2018-02-21T02:54:29.282Z,20.13
2018-02-21T02:55:36.284Z,20.12
2018-02-21T02:56:43.715Z,20.15
2018-02-21T02:57:50.787Z,20.15
2018-02-21T02:58:57.543Z,20.13
2018-02-21T03:00:04.144Z,20.15
2018-02-21T03:01:11.229Z,20.12
2018-02-21T03:02:18.259Z,20.12
2018-02-21T03:03:25.506Z,20.16
2018-02-21T03:04:32.090Z,20.13
2018-02-21T03:05:38.810Z,20.12
2018-02-21T03:06:45.457Z,20.12
2018-02-21T03:07:51.974Z,20.12
2018-02-21T03:08:58.625Z,20.11
2018-02-21T03:10:05.478Z,20.09
2018-02-21T03:11:12.200Z,20.11
2018-02-21T03:12:18.019Z,20.13
2018-02-21T03:13:23.778Z,20.11
2018-02-21T03:14:30.580Z,20.12
2018-02-21T03:15:37.349Z,20.13
2018-02-21T03:16:43.932Z,20.11
2018-02-21T03:17:50.619Z,20.12
2018-02-21T03:18:57.644Z,20.13
2018-02-21T03:20:04.281Z,20.11
2018-02-21T03:21:10.768Z,20.13
2018-02-21T03:22:17.331Z,20.13
2018-02-21T03:23:23.879Z,20.16
2018-02-21T03:24:30.456Z,20.12
2018-02-21T03:25:37.088Z,20.13
2018-02-21T03:26:44.026Z,20.12
2018-02-21T03:27:50.843Z,20.13
2018-02-21T03:29:02.041Z,20.12
2018-02-21T03:30:08.962Z,20.15
2018-02-21T03:31:15.303Z,20.12
2018-02-21T03:32:21.939Z,20.13
2018-02-21T03:33:28.467Z,20.13
2018-02-21T03:34:35.517Z,20.15
2018-02-21T03:35:42.916Z,20.13
2018-02-21T03:36:48.912Z,20.15
2018-02-21T03:37:55.597Z,20.11
2018-02-21T03:39:02.335Z,20.12
2018-02-21T03:40:09.567Z,20.12
2018-02-21T03:41:16.448Z,20.12
2018-02-21T03:42:23.040Z,20.13
2018-02-21T03:43:29.495Z,20.13
2018-02-21T03:44:36.143Z,20.12
2018-02-21T03:45:42.829Z,20.15
2018-02-21T03:46:49.810Z,20.15
2018-02-21T03:47:56.458Z,20.13
2018-02-21T03:49:03.400Z,20.13
2018-02-21T03:50:10.267Z,20.12
2018-02-21T03:51:17.011Z,20.12
2018-02-21T03:52:23.674Z,20.13
2018-02-21T03:53:29.633Z,20.12
2018-02-21T03:54:37.082Z,20.15
2018-02-21T03:55:44.117Z,20.16
2018-02-21T03:56:50.717Z,20.15
2018-02-21T03:57:57.781Z,20.13
2018-02-21T03:59:04.622Z,20.16
2018-02-21T04:00:11.749Z,20.15
2018-02-21T04:01:18.439Z,20.15
2018-02-21T04:02:24.900Z,20.13
2018-02-21T04:03:31.828Z,20.12
2018-02-21T04:04:38.822Z,20.13
2018-02-21T04:05:45.982Z,20.13
2018-02-21T04:06:52.454Z,20.16
2018-02-21T04:07:59.727Z,20.15
2018-02-21T04:09:06.442Z,20.15
2018-02-21T04:10:13.459Z,20.15
2018-02-21T04:11:20.660Z,20.16
2018-02-21T04:12:27.579Z,20.13
2018-02-21T04:13:34.502Z,20.15
2018-02-21T04:14:41.737Z,20.15
2018-02-21T04:15:48.466Z,20.13
2018-02-21T04:16:55.804Z,20.15
2018-02-21T04:18:02.529Z,20.12
2018-02-21T04:19:09.406Z,20.12
2018-02-21T04:20:15.271Z,20.13
2018-02-21T04:21:22.363Z,20.13
2018-02-21T04:22:29.213Z,20.13
2018-02-21T04:23:36.272Z,20.12
2018-02-21T04:24:42.894Z,20.15
2018-02-21T04:25:49.650Z,20.12
2018-02-21T04:26:56.507Z,20.16
2018-02-21T04:28:03.786Z,20.13
2018-02-21T04:29:10.633Z,20.15
2018-02-21T04:30:16.620Z,20.17
2018-02-21T04:31:23.525Z,20.16
2018-02-21T04:32:30.385Z,20.17
2018-02-21T04:33:37.679Z,20.19
2018-02-21T04:34:45.096Z,20.22
2018-02-21T04:35:52.299Z,20.20
2018-02-21T04:36:59.089Z,20.20
2018-02-21T04:38:05.859Z,20.22
2018-02-21T04:39:12.743Z,20.22
2018-02-21T04:40:19.591Z,20.23
2018-02-21T04:41:26.745Z,20.24
2018-02-21T04:42:33.743Z,20.23
2018-02-21T04:43:41.176Z,20.26
2018-02-21T04:44:49.042Z,20.26
2018-02-21T04:45:56.135Z,20.27
2018-02-21T04:47:03.170Z,20.27
2018-02-21T04:48:10.504Z,20.26
2018-02-21T04:49:17.592Z,20.27
2018-02-21T04:50:24.879Z,20.27
2018-02-21T04:51:32.910Z,20.27
2018-02-21T04:52:40.186Z,20.33
2018-02-21T04:53:46.905Z,20.27
2018-02-21T04:54:54.329Z,20.30
2018-02-21T04:56:01.065Z,20.30
2018-02-21T04:57:08.272Z,20.29
2018-02-21T04:58:14.881Z,20.31
2018-02-21T04:59:22.137Z,20.31
2018-02-21T05:00:28.159Z,20.33
2018-02-21T05:01:34.120Z,20.33
2018-02-21T05:02:40.276Z,20.33
2018-02-21T05:06:10.154Z,20.41
2018-02-21T05:08:54.939Z,20.46
2018-02-21T05:12:28.101Z,20.52
2018-02-21T05:15:07.898Z,20.52
2018-02-21T05:16:39.863Z,20.58
2018-02-21T05:17:45.882Z,20.59
2018-02-21T05:18:51.847Z,20.61
2018-02-21T05:19:57.988Z,20.65
2018-02-21T05:21:04.268Z,20.68
2018-02-21T05:22:10.633Z,20.70
2018-02-21T05:23:17.416Z,20.74
2018-02-21T05:24:24.324Z,20.76
2018-02-21T05:25:30.586Z,20.79
2018-02-21T05:26:36.648Z,20.82
2018-02-21T05:27:42.564Z,20.91
2018-02-21T05:28:48.693Z,20.93
2018-02-21T05:29:56.218Z,20.98
2018-02-21T05:31:02.802Z,21.05
2018-02-21T05:32:09.525Z,21.13
2018-02-21T05:33:15.616Z,21.14
2018-02-21T05:34:21.963Z,21.21
2018-02-21T05:35:28.212Z,21.27
2018-02-21T05:36:34.748Z,21.29
